Time;durP1;ratioP1;P1;durP2;ratioP2;P2;SDS_P1;SDS_P2;PMS_P1;PMS_P2;Temp;Humidity;BMP_temperature;BMP_pressure;BME280_temperature;BME280_humidity;BME280_pressure;Samples;Min_cycle;Max_cycle;Signal;HPM_P1;HPM_P2
2024/04/22 00:01:34;;;;;;;2.30;1.90;;;;;;;0.02;56.69;102860.66;5409307;26;20225;-69
2024/04/22 00:04:02;;;;;;;0.70;0.60;;;;;;;0.02;56.62;102858.97;5413341;26;20605;-69
2024/04/22 00:06:28;;;;;;;1.97;1.37;;;;;;;0.03;56.66;102840.16;5413188;26;20308;-69
2024/04/22 00:08:57;;;;;;;2.97;1.73;;;;;;;0.01;56.48;102846.91;5412236;26;20568;-69
2024/04/22 00:11:23;;;;;;;4.53;2.00;;;;;;;0.00;57.35;102845.16;5412526;26;20700;-69
2024/04/22 00:13:51;;;;;;;1.87;1.50;;;;;;;-0.02;57.15;102840.72;5412506;26;20458;-69
2024/04/22 00:16:20;;;;;;;2.97;1.27;;;;;;;0.01;56.86;102846.03;5410857;26;20291;-69
2024/04/22 00:18:48;;;;;;;2.27;1.50;;;;;;;0.00;56.97;102855.44;5411909;26;20459;-69
2024/04/22 00:21:14;;;;;;;2.00;1.70;;;;;;;0.03;57.38;102853.03;5412681;26;20459;-69
2024/04/22 00:23:43;;;;;;;2.43;1.80;;;;;;;0.02;57.38;102851.22;5411956;26;20463;-70
2024/04/22 00:26:08;;;;;;;2.40;1.70;;;;;;;0.03;57.37;102847.00;5412650;26;20346;-69
2024/04/22 00:28:37;;;;;;;2.20;1.67;;;;;;;0.03;57.46;102850.44;5412144;26;20463;-69
2024/04/22 00:31:03;;;;;;;4.40;2.07;;;;;;;0.00;57.63;102840.00;5410549;26;20242;-69
2024/04/22 00:33:34;;;;;;;2.83;1.70;;;;;;;0.03;57.25;102845.31;5412348;26;21034;-69
2024/04/22 00:36:00;;;;;;;2.40;1.73;;;;;;;0.04;57.62;102841.03;5412640;26;20601;-69
2024/04/22 00:38:30;;;;;;;2.00;1.80;;;;;;;0.05;57.62;102841.13;5412382;26;20466;-69
2024/04/22 00:40:56;;;;;;;3.87;1.80;;;;;;;0.05;57.80;102827.34;5412247;26;20737;-69
2024/04/22 00:43:24;;;;;;;3.07;1.90;;;;;;;0.05;57.75;102833.41;5412188;26;20470;-69
2024/04/22 00:45:51;;;;;;;3.60;2.20;;;;;;;-0.02;58.28;102822.69;5410617;26;20576;-69
2024/04/22 00:48:22;;;;;;;4.90;1.67;;;;;;;0.02;58.06;102833.22;5411861;26;20470;-69
2024/04/22 00:50:52;;;;;;;1.97;1.57;;;;;;;-0.02;57.99;102814.97;5411160;26;20553;-69
2024/04/22 00:53:22;;;;;;;4.47;1.90;;;;;;;0.04;57.84;102817.88;5412014;26;21055;-70
2024/04/22 00:55:49;;;;;;;1.87;1.50;;;;;;;0.05;57.71;102811.91;5411705;26;20463;-69
2024/04/22 00:58:19;;;;;;;1.77;1.37;;;;;;;0.06;57.78;102821.44;5409458;26;20459;-70
2024/04/22 01:00:46;;;;;;;3.23;1.80;;;;;;;-0.06;58.02;102793.34;5411481;26;20526;-69
2024/04/22 01:03:16;;;;;;;3.33;1.70;;;;;;;0.05;57.67;102817.06;5409468;26;20578;-72
2024/04/22 01:05:41;;;;;;;3.30;1.97;;;;;;;0.05;58.20;102817.97;5411165;26;20538;-72
2024/04/22 01:08:13;;;;;;;4.10;1.60;;;;;;;0.05;58.15;102810.25;5411512;26;20599;-72
2024/04/22 01:10:39;;;;;;;3.57;1.80;;;;;;;0.05;58.10;102807.69;5410658;26;20328;-72
2024/04/22 01:13:07;;;;;;;3.00;2.10;;;;;;;0.06;58.18;102804.28;5411743;26;20515;-66
2024/04/22 01:15:33;;;;;;;2.27;1.77;;;;;;;0.07;58.08;102802.59;5411779;26;20462;-66
2024/04/22 01:18:02;;;;;;;0.97;0.87;;;;;;;0.08;58.22;102801.78;5412010;26;20466;-66
2024/04/22 01:20:28;;;;;;;2.00;1.57;;;;;;;0.06;58.25;102804.28;5411658;26;20474;-66
2024/04/22 01:22:59;;;;;;;2.50;1.90;;;;;;;0.04;58.17;102798.16;5410843;26;20474;-69
2024/04/22 01:25:28;;;;;;;3.53;1.80;;;;;;;0.07;58.46;102802.59;5411316;26;20228;-70
2024/04/22 01:27:56;;;;;;;2.20;1.47;;;;;;;0.06;58.01;102796.56;5410629;26;20534;-69
2024/04/22 01:30:22;;;;;;;1.87;1.40;;;;;;;0.06;58.07;102791.41;5411128;26;21314;-69
2024/04/22 01:32:51;;;;;;;1.87;1.40;;;;;;;0.06;58.17;102796.56;5410841;26;20459;-74
2024/04/22 01:35:17;;;;;;;3.27;1.43;;;;;;;0.08;57.89;102797.53;5411524;26;20599;-69
2024/04/22 01:37:45;;;;;;;4.30;1.77;;;;;;;0.09;58.33;102798.41;5410534;26;20470;-69
2024/04/22 01:40:15;;;;;;;4.47;1.50;;;;;;;0.09;58.19;102791.56;5410710;26;20276;-69
2024/04/22 01:42:44;;;;;;;2.10;1.60;;;;;;;0.09;58.43;102783.84;5410219;26;20518;-69
2024/04/22 01:45:09;;;;;;;5.17;2.10;;;;;;;0.10;58.39;102784.72;5410114;26;20463;-69
2024/04/22 01:47:38;;;;;;;2.47;1.43;;;;;;;0.10;58.41;102783.03;5414115;26;21125;-69
2024/04/22 01:50:06;;;;;;;1.60;1.50;;;;;;;0.10;58.17;102785.63;5414617;26;20793;-69
2024/04/22 01:52:35;;;;;;;1.90;1.50;;;;;;;0.11;58.34;102778.78;5414820;26;20522;-69
2024/04/22 01:55:00;;;;;;;3.10;1.83;;;;;;;0.12;58.13;102775.41;5414858;26;20534;-67
2024/04/22 01:57:32;;;;;;;3.50;1.83;;;;;;;0.12;58.29;102789.16;5414972;26;20466;-69
2024/04/22 01:59:57;;;;;;;1.37;1.00;;;;;;;0.12;57.93;102778.88;5414477;26;20280;-69
2024/04/22 02:02:26;;;;;;;2.37;1.57;;;;;;;0.13;58.29;102767.75;5414361;26;20470;-69
2024/04/22 02:04:52;;;;;;;2.37;1.70;;;;;;;0.13;58.25;102779.75;5413985;26;20242;-69
2024/04/22 02:07:20;;;;;;;2.80;1.50;;;;;;;0.13;58.17;102765.19;5414389;26;20924;-69
2024/04/22 02:09:46;;;;;;;2.53;1.47;;;;;;;0.12;57.92;102771.16;5413795;26;20467;-69
2024/04/22 02:12:15;;;;;;;2.63;2.00;;;;;;;0.13;58.24;102760.03;5414131;26;21097;-70
2024/04/22 02:14:44;;;;;;;3.00;1.80;;;;;;;0.13;57.88;102762.59;5413967;26;20233;-69
2024/04/22 02:17:12;;;;;;;3.60;1.70;;;;;;;0.12;57.98;102766.00;5410748;26;20572;-69
2024/04/22 02:19:38;;;;;;;4.43;1.63;;;;;;;0.12;58.07;102758.28;5413993;26;20522;-69
2024/04/22 02:22:07;;;;;;;1.83;1.27;;;;;;;0.15;58.27;102756.69;5414245;26;20572;-69
2024/04/22 02:24:33;;;;;;;3.03;1.70;;;;;;;0.14;58.19;102760.94;5414154;26;20466;-69
2024/04/22 02:27:01;;;;;;;3.63;1.90;;;;;;;0.12;57.87;102753.13;5414681;26;20459;-70
2024/04/22 02:29:27;;;;;;;3.70;1.90;;;;;;;0.10;57.77;102748.69;5414503;26;20531;-69
2024/04/22 02:31:59;;;;;;;4.00;1.63;;;;;;;0.09;57.76;102750.41;5413918;26;20463;-76
2024/04/22 02:34:25;;;;;;;2.50;1.70;;;;;;;0.09;57.96;102742.69;5413967;26;21121;-75
2024/04/22 02:36:53;;;;;;;6.27;1.70;;;;;;;0.12;57.58;102742.84;5413854;26;20478;-76
2024/04/22 02:39:19;;;;;;;2.43;1.60;;;;;;;0.12;57.84;102735.09;5414114;26;20467;-76
2024/04/22 02:41:48;;;;;;;3.33;1.87;;;;;;;0.10;57.39;102734.13;5413822;26;20834;-77
2024/04/22 02:44:14;;;;;;;3.20;1.80;;;;;;;0.09;57.54;102740.09;5413913;26;20608;-76
2024/04/22 02:46:42;;;;;;;2.03;1.40;;;;;;;0.08;57.30;102730.63;5413412;26;20486;-73
2024/04/22 02:49:11;;;;;;;1.70;1.37;;;;;;;0.08;57.30;102740.00;5413915;26;20344;-76
2024/04/22 02:51:40;;;;;;;4.67;2.10;;;;;;;0.10;57.13;102734.13;5411035;26;21055;-75
2024/04/22 02:54:06;;;;;;;2.83;1.13;;;;;;;0.09;57.13;102736.66;5410107;26;20588;-75
2024/04/22 02:56:34;;;;;;;1.93;1.50;;;;;;;0.08;57.34;102735.78;5414117;26;20891;-74
2024/04/22 02:59:00;;;;;;;1.73;1.60;;;;;;;0.06;56.93;102731.34;5414084;26;20284;-75
2024/04/22 03:01:31;;;;;;;2.93;1.50;;;;;;;0.04;57.08;102731.25;5413936;26;20581;-75
2024/04/22 03:03:58;;;;;;;2.50;1.30;;;;;;;-0.07;56.75;102709.22;5414102;26;20228;-75
2024/04/22 03:06:29;;;;;;;1.60;1.50;;;;;;;0.02;56.94;102727.69;5413926;26;20818;-75
2024/04/22 03:08:55;;;;;;;4.03;1.80;;;;;;;0.01;56.37;102720.81;5412643;26;21129;-76
2024/04/22 03:11:23;;;;;;;1.83;1.60;;;;;;;-0.01;56.39;102714.69;5413680;26;20478;-75
2024/04/22 03:13:49;;;;;;;1.67;1.37;;;;;;;-0.03;56.38;102707.69;5413420;26;20280;-75
2024/04/22 03:16:18;;;;;;;4.03;1.93;;;;;;;-0.03;56.54;102711.16;5413438;26;20475;-76
2024/04/22 03:18:46;;;;;;;3.60;1.70;;;;;;;-0.00;56.50;102720.75;5413194;26;20237;-75
2024/04/22 03:21:14;;;;;;;2.57;1.53;;;;;;;0.00;56.48;102713.91;5413710;26;20463;-75
2024/04/22 03:23:43;;;;;;;3.57;2.33;;;;;;;-0.01;56.50;102717.25;5413404;26;21122;-75
2024/04/22 03:26:12;;;;;;;5.27;1.93;;;;;;;-0.05;56.27;102692.19;5413510;26;20527;-75
2024/04/22 03:28:38;;;;;;;3.70;1.40;;;;;;;-0.04;56.32;102699.09;5413274;26;20471;-75
2024/04/22 03:31:07;;;;;;;2.93;1.40;;;;;;;-0.03;56.58;102695.72;5413646;26;20466;-74
2024/04/22 03:33:33;;;;;;;2.10;1.27;;;;;;;-0.03;56.62;102700.88;5409963;26;20293;-74
2024/04/22 03:36:03;;;;;;;3.07;1.57;;;;;;;-0.05;56.35;102692.19;5413456;26;20463;-74
2024/04/22 03:38:32;;;;;;;3.33;2.00;;;;;;;-0.06;56.12;102694.66;5411244;26;20225;-74
2024/04/22 03:41:03;;;;;;;3.33;1.97;;;;;;;-0.06;55.95;102690.44;5413124;26;20475;-74
2024/04/22 03:43:29;;;;;;;5.20;1.97;;;;;;;-0.08;56.33;102686.88;5409320;26;20806;-75
2024/04/22 03:51:23;;;;;;;1.00;0.90;;;;;;;-0.08;56.19;102692.03;5414701;26;20587;-74
2024/04/22 03:53:51;;;;;;;3.50;1.50;;;;;;;-0.11;56.20;102679.00;5412599;26;20602;-75
2024/04/22 03:56:23;;;;;;;2.90;1.17;;;;;;;-0.10;56.42;102685.91;5413073;26;20813;-74
2024/04/22 03:58:52;;;;;;;4.37;1.87;;;;;;;-0.11;56.06;102686.72;5412355;26;20823;-75
2024/04/22 04:01:21;;;;;;;3.00;1.70;;;;;;;-0.11;56.28;102686.72;5412905;26;20462;-75
2024/04/22 04:03:46;;;;;;;2.60;1.50;;;;;;;-0.10;56.27;102683.34;5412317;26;20474;-75
2024/04/22 04:06:15;;;;;;;1.30;1.00;;;;;;;-0.10;55.90;102679.06;5409915;26;20878;-74
2024/04/22 04:08:41;;;;;;;5.03;1.70;;;;;;;-0.13;55.61;102678.91;5411509;26;20292;-74
2024/04/22 04:11:12;;;;;;;3.50;1.60;;;;;;;-0.14;54.96;102666.00;5412515;26;20578;-75
2024/04/22 04:13:43;;;;;;;2.40;1.20;;;;;;;-0.15;55.43;102671.91;5412478;26;21043;-74
2024/04/22 04:16:12;;;;;;;2.13;1.13;;;;;;;-0.19;55.57;102660.59;5412749;26;20566;-74
2024/04/22 04:18:38;;;;;;;3.77;1.93;;;;;;;-0.16;55.42;102660.75;5412372;26;20608;-75
2024/04/22 04:21:07;;;;;;;2.00;0.90;;;;;;;-0.16;55.42;102667.59;5412528;26;20808;-75
2024/04/22 04:23:33;;;;;;;2.27;1.77;;;;;;;-0.16;55.55;102665.88;5407453;26;20534;-75
2024/04/22 04:26:02;;;;;;;1.73;1.27;;;;;;;-0.19;55.40;102657.13;5412815;26;20451;-75
2024/04/22 04:28:28;;;;;;;1.60;1.40;;;;;;;-0.18;55.20;102664.91;5413084;26;20938;-75
2024/04/22 04:31:01;;;;;;;2.60;1.60;;;;;;;-0.19;55.19;102647.72;5411928;26;20552;-75
2024/04/22 04:33:27;;;;;;;1.53;0.93;;;;;;;-0.20;55.40;102651.13;5412946;26;20482;-75
2024/04/22 04:36:00;;;;;;;2.60;1.17;;;;;;;-0.21;55.13;102649.34;5411731;26;20467;-75
2024/04/22 04:38:26;;;;;;;2.00;1.30;;;;;;;-0.20;55.16;102645.97;5412362;26;21078;-75
2024/04/22 04:40:55;;;;;;;5.13;1.83;;;;;;;-0.19;55.12;102646.84;5411753;26;20558;-75
2024/04/22 04:43:20;;;;;;;1.60;1.03;;;;;;;-0.20;55.15;102640.81;5412096;26;20355;-75
2024/04/22 04:45:49;;;;;;;2.47;1.03;;;;;;;-0.20;55.06;102638.25;5411778;26;20815;-75
2024/04/22 04:48:18;;;;;;;4.47;1.50;;;;;;;-0.22;54.97;102637.28;5410097;26;20296;-75
2024/04/22 04:50:47;;;;;;;3.40;1.53;;;;;;;-0.20;54.56;102645.09;5412039;26;20518;-75
2024/04/22 04:53:13;;;;;;;2.93;1.30;;;;;;;-0.23;54.50;102632.97;5411116;26;20584;-74
2024/04/22 04:55:42;;;;;;;3.37;0.77;;;;;;;-0.22;54.81;102645.00;5411830;26;20590;-75
2024/04/22 04:58:09;;;;;;;4.23;1.90;;;;;;;-0.22;54.64;102646.69;5412071;26;20542;-75
2024/04/22 05:00:37;;;;;;;3.80;1.60;;;;;;;-0.24;54.35;102622.56;5411964;26;20513;-76
2024/04/22 05:03:04;;;;;;;3.40;1.60;;;;;;;-0.25;54.55;102626.84;5412223;26;20530;-75
2024/04/22 05:05:35;;;;;;;2.60;1.10;;;;;;;-0.25;54.01;102629.41;5412483;26;20479;-74
2024/04/22 05:08:02;;;;;;;4.33;1.27;;;;;;;-0.38;54.20;102612.44;5408982;26;21091;-75
2024/04/22 05:10:31;;;;;;;3.33;1.30;;;;;;;-0.24;54.22;102635.44;5412343;26;20580;-75
2024/04/22 05:12:56;;;;;;;4.10;1.20;;;;;;;-0.25;54.70;102633.69;5411749;26;21190;-75
2024/04/22 05:15:25;;;;;;;0.57;0.57;;;;;;;-0.22;54.83;102633.84;5411653;26;20562;-75
2024/04/22 05:17:51;;;;;;;2.27;1.13;;;;;;;-0.20;54.69;102640.81;5411374;26;20340;-75
2024/04/22 05:20:19;;;;;;;3.00;1.40;;;;;;;-0.17;54.65;102627.25;5413470;26;20819;-75
2024/04/22 05:22:48;;;;;;;2.63;1.77;;;;;;;-0.17;54.91;102625.53;5414881;26;20733;-75
2024/04/22 05:25:17;;;;;;;2.40;1.53;;;;;;;-0.14;54.63;102625.69;5415432;26;20529;-74
2024/04/22 05:27:42;;;;;;;3.80;1.67;;;;;;;-0.13;54.25;102627.47;5414630;26;20451;-75
2024/04/22 05:30:12;;;;;;;3.43;1.63;;;;;;;-0.13;54.13;102626.56;5414970;26;20572;-75
2024/04/22 05:32:38;;;;;;;1.93;1.00;;;;;;;-0.15;53.88;102634.25;5414850;26;20264;-75
2024/04/22 05:37:55;;;;;;;3.30;1.50;;;;;;;-0.16;53.77;102611.00;5416088;26;20569;-74
2024/04/22 05:40:23;;;;;;;1.60;1.30;;;;;;;-0.17;53.75;102616.94;5415232;26;20608;-74
2024/04/22 05:42:52;;;;;;;4.80;1.60;;;;;;;-0.17;53.71;102630.69;5416419;26;20474;-75
2024/04/22 05:45:20;;;;;;;5.10;1.37;;;;;;;-0.21;53.51;102602.16;5415333;26;20466;-75
2024/04/22 05:47:49;;;;;;;3.73;2.10;;;;;;;-0.17;53.22;102640.09;5418960;26;20542;-74
2024/04/22 05:50:18;;;;;;;2.23;1.10;;;;;;;-0.19;53.34;102610.84;5418730;26;20454;-75
2024/04/22 05:52:46;;;;;;;3.63;1.63;;;;;;;-0.19;53.18;102611.72;5418730;26;20451;-64
2024/04/22 05:55:17;;;;;;;1.17;0.67;;;;;;;-0.18;53.29;102612.59;5418495;26;20501;-64
2024/04/22 05:57:43;;;;;;;3.33;1.53;;;;;;;-0.19;53.33;102624.56;5414022;26;20565;-66
2024/04/22 06:00:13;;;;;;;0.50;0.43;;;;;;;-0.16;53.41;102627.31;5418349;26;20471;-67
2024/04/22 06:02:38;;;;;;;0.43;0.43;;;;;;;-0.14;53.52;102638.56;5412948;26;20777;-69
2024/04/22 06:05:07;;;;;;;1.77;1.20;;;;;;;-0.11;53.40;102635.28;5417992;26;20550;-68
2024/04/22 06:07:33;;;;;;;1.40;1.00;;;;;;;-0.10;53.38;102642.16;5418680;26;20225;-68
2024/04/22 06:10:02;;;;;;;1.07;0.90;;;;;;;-0.10;53.49;102658.47;5418529;26;20463;-68
2024/04/22 06:12:30;;;;;;;1.43;1.27;;;;;;;-0.08;53.02;102655.13;5418404;26;20346;-68
2024/04/22 06:14:59;;;;;;;2.10;1.00;;;;;;;-0.07;52.99;102644.91;5418446;26;20451;-68
2024/04/22 06:17:25;;;;;;;0.77;0.77;;;;;;;-0.06;53.16;102630.34;5418395;26;20510;-68
2024/04/22 06:19:53;;;;;;;2.73;1.50;;;;;;;-0.04;52.59;102621.88;5418267;26;20572;-68
2024/04/22 06:22:19;;;;;;;2.93;1.30;;;;;;;-0.04;52.92;102627.03;5417331;26;20226;-68
2024/04/22 06:24:48;;;;;;;3.43;1.53;;;;;;;0.03;52.80;102631.69;5418248;26;20511;-68
2024/04/22 06:27:14;;;;;;;4.03;1.50;;;;;;;0.06;52.76;102630.97;5418289;26;20313;-68
2024/04/22 06:29:45;;;;;;;2.40;1.23;;;;;;;0.08;52.57;102637.06;5418194;26;20459;-68
2024/04/22 06:32:11;;;;;;;1.33;0.70;;;;;;;0.10;52.37;102628.59;5416496;26;20281;-68
2024/04/22 06:34:40;;;;;;;3.27;1.47;;;;;;;0.13;52.01;102646.78;5418325;26;20511;-68
2024/04/22 06:37:06;;;;;;;1.63;1.30;;;;;;;0.15;51.80;102639.16;5418313;26;20458;-68
2024/04/22 06:39:34;;;;;;;4.10;1.33;;;;;;;0.19;52.10;102614.44;5417882;26;20573;-69
2024/04/22 06:42:00;;;;;;;2.60;1.53;;;;;;;0.23;51.82;102611.22;5413673;26;20784;-67
2024/04/22 06:44:29;;;;;;;2.03;1.17;;;;;;;0.28;51.99;102614.88;5418010;26;20553;-67
2024/04/22 06:46:58;;;;;;;2.80;1.70;;;;;;;0.31;51.49;102607.34;5417853;26;20342;-67
2024/04/22 06:49:26;;;;;;;2.10;1.30;;;;;;;0.35;51.29;102599.81;5417127;26;20502;-68
2024/04/22 06:51:52;;;;;;;0.70;0.67;;;;;;;0.39;51.80;102587.97;5417621;26;20561;-69
2024/04/22 06:54:21;;;;;;;3.23;1.50;;;;;;;0.45;50.69;102596.00;5417856;26;20459;-68
2024/04/22 06:56:47;;;;;;;2.50;1.57;;;;;;;0.49;50.79;102589.31;5417529;26;20289;-69
2024/04/22 06:59:15;;;;;;;3.77;1.43;;;;;;;0.52;50.50;102590.31;5417241;26;20567;-69
2024/04/22 07:01:41;;;;;;;1.50;0.87;;;;;;;0.54;50.70;102581.00;5417844;26;20355;-67
2024/04/22 07:04:12;;;;;;;1.57;1.30;;;;;;;0.60;49.99;102593.28;5417797;26;21011;-67
2024/04/22 07:06:41;;;;;;;3.07;1.37;;;;;;;0.64;49.46;102584.00;5417774;26;20712;-68
2024/04/22 07:09:09;;;;;;;3.07;1.13;;;;;;;0.61;49.25;102568.41;5416992;26;20588;-67
2024/04/22 07:11:38;;;;;;;2.30;1.30;;;;;;;0.70;49.16;102586.84;5417583;26;20451;-70
2024/04/22 07:14:05;;;;;;;4.07;1.60;;;;;;;0.75;49.30;102567.34;5417617;26;20666;-71
2024/04/22 07:16:34;;;;;;;0.77;0.77;;;;;;;0.80;49.04;102566.75;5417536;26;20513;-74
2024/04/22 07:18:59;;;;;;;2.67;1.10;;;;;;;0.88;48.96;102572.25;5417483;26;20455;-74
2024/04/22 07:21:31;;;;;;;2.37;1.10;;;;;;;1.00;48.95;102585.69;5417583;26;20996;-72
2024/04/22 07:23:57;;;;;;;4.20;1.60;;;;;;;1.09;48.18;102579.19;5412184;26;20221;-73
2024/04/22 07:26:25;;;;;;;3.10;1.27;;;;;;;1.08;48.27;102564.53;5416966;26;20452;-74
2024/04/22 07:28:52;;;;;;;2.50;1.50;;;;;;;1.09;47.51;102553.41;5417367;26;20282;-73
2024/04/22 07:31:21;;;;;;;1.30;1.13;;;;;;;1.06;47.94;102545.56;5417021;26;20540;-72
2024/04/22 07:33:47;;;;;;;3.23;1.60;;;;;;;1.17;47.79;102572.69;5417206;26;20451;-72
2024/04/22 07:36:24;;;;;;;2.67;1.27;;;;;;;1.16;47.82;102550.28;5417075;26;20452;-73
2024/04/22 07:38:59;;;;;;;3.77;1.30;;;;;;;1.35;48.41;102555.44;5416848;26;20466;-72
2024/04/22 07:41:28;;;;;;;2.03;1.40;;;;;;;1.46;47.85;102556.78;5417219;26;20458;-74
2024/04/22 07:43:54;;;;;;;0.70;0.70;;;;;;;1.57;48.09;102554.69;5415278;26;20538;-73
2024/04/22 07:46:23;;;;;;;3.03;1.73;;;;;;;1.68;47.90;102547.41;5416911;26;20474;-71
2024/04/22 07:48:49;;;;;;;1.63;1.17;;;;;;;1.80;48.00;102553.06;5416931;26;20524;-69
2024/04/22 07:51:17;;;;;;;1.77;1.47;;;;;;;1.91;47.70;102530.28;5417140;26;20579;-75
2024/04/22 07:53:44;;;;;;;1.10;0.90;;;;;;;2.01;47.58;102547.03;5417097;26;20336;-75
2024/04/22 07:56:18;;;;;;;2.10;1.13;;;;;;;2.12;47.94;102530.28;5417115;26;20855;-74
2024/04/22 07:58:45;;;;;;;2.73;1.43;;;;;;;2.16;48.00;102521.84;5416837;26;20459;-75
2024/04/22 08:01:14;;;;;;;1.20;1.20;;;;;;;2.32;47.79;102529.38;5416769;26;20469;-72
2024/04/22 08:03:41;;;;;;;1.50;1.00;;;;;;;2.40;47.35;102532.25;5416595;26;20617;-72
2024/04/22 08:06:13;;;;;;;2.07;0.73;;;;;;;2.38;46.11;102529.59;5416768;26;20578;-72
2024/04/22 08:08:41;;;;;;;5.40;1.97;;;;;;;2.39;45.07;102525.34;5416305;26;20472;-74
2024/04/22 08:11:10;;;;;;;4.23;1.30;;;;;;;2.36;46.08;102523.50;5416718;26;21019;-73
2024/04/22 08:13:38;;;;;;;2.53;1.40;;;;;;;2.40;46.35;102524.50;5416760;26;20542;-69
2024/04/22 08:16:08;;;;;;;1.50;1.10;;;;;;;2.40;46.29;102532.25;5416761;26;20816;-69
2024/04/22 08:18:34;;;;;;;3.50;1.60;;;;;;;2.41;45.04;102520.22;5416490;26;20511;-70
2024/04/22 08:21:02;;;;;;;0.37;0.37;;;;;;;2.41;45.71;102521.09;5417053;26;20460;-72
2024/04/22 08:23:30;;;;;;;2.37;1.03;;;;;;;2.46;45.70;102514.41;5416634;26;20236;-72
2024/04/22 08:25:58;;;;;;;2.63;1.47;;;;;;;2.50;46.05;102512.81;5416282;26;20580;-71
2024/04/22 08:28:24;;;;;;;1.50;1.17;;;;;;;2.54;45.75;102520.75;5416441;26;20606;-71
2024/04/22 08:31:02;;;;;;;3.87;1.17;;;;;;;2.46;45.61;102498.03;5416049;26;20472;-70
2024/04/22 08:33:28;;;;;;;3.67;1.77;;;;;;;2.56;45.37;102513.06;5413282;26;20524;-70
2024/04/22 08:35:56;;;;;;;3.63;1.30;;;;;;;2.55;45.19;102503.53;5416402;26;20565;-69
2024/04/22 08:38:22;;;;;;;2.33;1.37;;;;;;;2.55;44.92;102512.16;5416388;26;20231;-70
2024/04/22 08:40:51;;;;;;;2.17;1.23;;;;;;;2.55;45.00;102503.53;5416153;26;20504;-70
2024/04/22 08:43:18;;;;;;;2.30;1.30;;;;;;;2.58;44.96;102496.78;5410509;26;20465;-72
2024/04/22 08:45:47;;;;;;;3.43;1.30;;;;;;;2.63;45.04;102491.78;5416154;26;20473;-70
2024/04/22 08:48:16;;;;;;;1.73;1.10;;;;;;;2.67;45.19;102490.19;5416071;26;20605;-69
2024/04/22 08:50:45;;;;;;;2.90;1.20;;;;;;;2.73;45.33;102491.31;5411472;26;20458;-71
2024/04/22 08:53:11;;;;;;;1.40;1.17;;;;;;;2.71;45.50;102479.16;5416409;26;20463;-71
2024/04/22 08:55:40;;;;;;;3.50;1.50;;;;;;;2.76;45.17;102486.25;5423730;26;20446;-72
2024/04/22 08:58:07;;;;;;;2.63;1.43;;;;;;;2.79;45.57;102494.13;5423425;26;20581;-72
2024/04/22 09:00:36;;;;;;;3.13;0.80;;;;;;;2.80;45.90;102500.19;5423490;26;21040;-72
2024/04/22 09:03:03;;;;;;;2.97;1.30;;;;;;;2.79;45.62;102495.84;5423566;26;20460;-70
2024/04/22 09:05:34;;;;;;;1.87;1.40;;;;;;;2.80;45.47;102482.97;5423512;26;20464;-72
2024/04/22 09:08:03;;;;;;;2.13;1.40;;;;;;;2.81;45.23;102489.00;5422899;26;20465;-70
2024/04/22 09:10:34;;;;;;;3.57;1.20;;;;;;;2.80;45.28;102482.09;5423230;26;20900;-71
2024/04/22 09:13:00;;;;;;;2.27;1.10;;;;;;;2.81;45.88;102478.66;5422505;26;20458;-70
2024/04/22 09:15:29;;;;;;;1.90;1.40;;;;;;;2.86;45.76;102476.25;5423310;26;20577;-70
2024/04/22 09:17:57;;;;;;;1.90;1.50;;;;;;;2.78;45.61;102468.22;5423229;26;20592;-68
2024/04/22 09:20:25;;;;;;;2.93;1.70;;;;;;;2.88;45.42;102477.19;5423042;26;20462;-69
2024/04/22 09:22:56;;;;;;;3.43;1.67;;;;;;;2.91;44.45;102474.72;5421303;26;20514;-68
2024/04/22 09:25:23;;;;;;;1.30;1.20;;;;;;;2.89;44.63;102466.03;5423064;26;20462;-68
2024/04/22 09:27:52;;;;;;;2.40;1.20;;;;;;;2.87;44.77;102473.75;5423167;26;20448;-68
2024/04/22 09:30:20;;;;;;;2.77;1.50;;;;;;;2.87;45.16;102462.50;5422904;26;20465;-68
2024/04/22 09:32:50;;;;;;;2.63;1.53;;;;;;;2.88;45.20;102453.94;5423224;26;20458;-73
2024/04/22 09:35:18;;;;;;;2.73;1.10;;;;;;;2.82;45.12;102428.75;5422542;26;20470;-72
2024/04/22 09:37:47;;;;;;;3.90;1.70;;;;;;;2.80;44.94;102426.09;5422958;26;20457;-73
2024/04/22 09:40:17;;;;;;;2.20;1.20;;;;;;;2.90;44.84;102435.06;5422616;26;20490;-73
2024/04/22 09:42:47;;;;;;;3.57;1.60;;;;;;;2.91;45.17;102447.16;5422802;26;20448;-73
2024/04/22 09:45:14;;;;;;;1.80;1.20;;;;;;;2.92;45.26;102435.09;5422800;26;20466;-75
2024/04/22 09:47:44;;;;;;;2.60;1.43;;;;;;;2.92;45.96;102427.34;5422723;26;20548;-74
2024/04/22 09:50:10;;;;;;;4.03;1.60;;;;;;;2.94;45.62;102428.28;5422928;26;20531;-76
2024/04/22 09:52:40;;;;;;;2.50;1.50;;;;;;;2.98;44.78;102437.91;5422896;26;20459;-76
2024/04/22 09:55:07;;;;;;;1.27;1.00;;;;;;;2.92;44.68;102429.94;5418681;26;20980;-73
2024/04/22 09:57:42;;;;;;;2.30;1.00;;;;;;;2.91;44.76;102421.31;5422510;26;20456;-75
2024/04/22 10:00:10;;;;;;;2.17;1.37;;;;;;;2.89;44.92;102429.81;5422483;26;20453;-69
2024/04/22 10:02:39;;;;;;;2.30;1.23;;;;;;;2.90;44.77;102416.06;5422334;26;21025;-69
2024/04/22 10:05:08;;;;;;;2.77;1.40;;;;;;;2.88;44.63;102416.03;5420890;26;20458;-69
2024/04/22 10:07:36;;;;;;;1.17;0.90;;;;;;;2.87;44.44;102405.63;5418108;26;21039;-69
2024/04/22 10:10:07;;;;;;;2.30;1.17;;;;;;;2.87;44.76;102405.63;5412506;26;20591;-69
2024/04/22 10:12:36;;;;;;;3.20;1.50;;;;;;;2.82;45.11;102398.59;5418181;26;20451;-69
2024/04/22 10:15:13;;;;;;;3.40;1.50;;;;;;;2.75;45.38;102386.28;5417697;26;20500;-69
2024/04/22 10:17:41;;;;;;;2.93;1.30;;;;;;;2.82;45.76;102401.19;5418150;26;20463;-68
2024/04/22 10:20:10;;;;;;;2.87;1.47;;;;;;;2.79;45.78;102398.50;5418218;26;20468;-69
2024/04/22 10:22:39;;;;;;;4.57;1.60;;;;;;;2.73;45.91;102379.28;5418331;26;20465;-69
2024/04/22 10:25:08;;;;;;;2.23;1.30;;;;;;;2.80;45.86;102386.44;5414442;26;21045;-68
2024/04/22 10:27:37;;;;;;;2.50;1.40;;;;;;;2.77;46.26;102394.97;5418111;26;20450;-68
2024/04/22 10:30:04;;;;;;;3.30;1.40;;;;;;;2.77;46.32;102373.41;5417701;26;20528;-67
2024/04/22 10:32:35;;;;;;;1.63;1.20;;;;;;;2.65;45.87;102357.50;5418123;26;20458;-69
2024/04/22 10:35:01;;;;;;;3.40;1.50;;;;;;;2.73;45.89;102361.19;5418048;26;20466;-69
2024/04/22 10:37:29;;;;;;;2.50;1.60;;;;;;;2.72;45.95;102355.16;5418036;26;20512;-69
2024/04/22 10:39:55;;;;;;;5.20;1.27;;;;;;;2.72;45.86;102362.91;5417978;26;20332;-69
2024/04/22 10:42:28;;;;;;;2.87;1.43;;;;;;;2.70;45.60;102343.00;5418082;26;20462;-69
2024/04/22 10:44:54;;;;;;;2.83;2.03;;;;;;;2.53;45.61;102316.56;5417958;26;20280;-69
2024/04/22 10:47:24;;;;;;;2.10;1.50;;;;;;;2.62;45.76;102321.22;5417764;26;20476;-69
2024/04/22 10:49:52;;;;;;;3.33;1.37;;;;;;;2.65;45.81;102329.94;5417916;26;20459;-69
2024/04/22 10:52:21;;;;;;;1.23;1.10;;;;;;;2.65;46.12;102322.19;5422106;26;20529;-68
2024/04/22 10:54:47;;;;;;;3.00;1.63;;;;;;;2.67;45.80;102328.28;5417892;26;20580;-70
2024/04/22 10:57:16;;;;;;;4.83;1.40;;;;;;;2.68;45.47;102311.06;5417842;26;20990;-69
2024/04/22 10:59:42;;;;;;;2.70;1.10;;;;;;;2.68;45.77;102301.63;5417811;26;20224;-69
2024/04/22 11:02:12;;;;;;;1.97;1.10;;;;;;;2.69;45.66;102302.47;5417640;26;20848;-69
2024/04/22 11:04:38;;;;;;;3.07;1.37;;;;;;;2.68;46.05;102291.28;5417892;26;20223;-68
2024/04/22 11:07:09;;;;;;;4.27;1.40;;;;;;;2.70;46.17;102293.88;5413253;26;20999;-69
2024/04/22 11:09:40;;;;;;;1.70;1.13;;;;;;;2.71;46.37;102296.53;5417581;26;20466;-69
2024/04/22 11:12:09;;;;;;;2.80;1.57;;;;;;;2.72;45.66;102290.53;5412871;26;20953;-69
2024/04/22 11:14:36;;;;;;;3.93;1.30;;;;;;;2.72;46.21;102287.94;5417740;26;20466;-69
2024/04/22 11:17:04;;;;;;;3.30;1.63;;;;;;;2.73;46.29;102287.16;5416236;26;20575;-69
2024/04/22 11:19:30;;;;;;;3.33;1.57;;;;;;;2.73;46.26;102289.72;5417261;26;20521;-69
2024/04/22 11:21:59;;;;;;;1.57;1.23;;;;;;;2.76;46.00;102288.97;5417495;26;20982;-69
2024/04/22 11:24:28;;;;;;;6.30;1.80;;;;;;;2.77;45.95;102289.00;5415248;26;20219;-69
2024/04/22 11:26:56;;;;;;;3.50;1.53;;;;;;;2.77;46.17;102286.41;5417336;26;20515;-68
2024/04/22 11:29:25;;;;;;;3.63;1.63;;;;;;;2.77;45.36;102273.47;5417463;26;20524;-69
2024/04/22 11:31:55;;;;;;;2.03;1.07;;;;;;;2.75;45.97;102272.53;5417417;26;20462;-69
2024/04/22 11:34:21;;;;;;;1.97;1.00;;;;;;;2.74;45.88;102268.22;5417308;26;20608;-69
2024/04/22 11:36:55;;;;;;;0.90;0.80;;;;;;;2.83;46.09;102278.84;5417438;26;20564;-70
2024/04/22 11:39:21;;;;;;;4.10;2.13;;;;;;;2.84;46.08;102279.72;5417105;26;20525;-70
2024/04/22 11:41:52;;;;;;;4.17;1.60;;;;;;;2.85;46.18;102267.72;5417098;26;20510;-69
2024/04/22 11:44:18;;;;;;;5.03;2.00;;;;;;;2.87;45.89;102269.53;5417365;26;20470;-69